createdAt,value
2022-10-02T00:01:49.996Z,90.99
2022-10-02T00:07:03.249Z,91.01
2022-10-02T00:12:14.261Z,90.85
2022-10-02T00:17:23.466Z,91.16
2022-10-02T00:22:46.816Z,91.18
2022-10-02T00:28:08.097Z,91.43
2022-10-02T00:33:23.906Z,91.84
2022-10-02T00:38:44.954Z,91.99
2022-10-02T00:44:04.263Z,92.30
2022-10-02T00:49:37.433Z,92.54
2022-10-02T00:55:16.832Z,92.50
2022-10-02T01:00:25.996Z,92.54
2022-10-02T01:05:34.314Z,92.38
2022-10-02T01:10:41.764Z,92.46
2022-10-02T01:15:52.932Z,92.45
2022-10-02T01:20:59.389Z,92.32
2022-10-02T01:26:06.125Z,92.47
2022-10-02T01:31:14.715Z,92.50
2022-10-02T01:36:23.079Z,92.80
2022-10-02T01:41:28.911Z,92.78
2022-10-02T01:46:41.408Z,92.89
2022-10-02T01:52:10.021Z,92.82
2022-10-02T01:57:25.268Z,92.71
2022-10-02T02:02:42.389Z,92.79
2022-10-02T02:07:58.140Z,92.67
2022-10-02T02:13:07.833Z,92.53
2022-10-02T02:18:20.701Z,92.60
2022-10-02T02:23:31.826Z,92.65
2022-10-02T02:28:38.170Z,92.32
2022-10-02T02:33:48.415Z,92.66
2022-10-02T02:39:00.235Z,92.62
2022-10-02T02:44:11.219Z,92.66
2022-10-02T02:49:17.538Z,92.72
2022-10-02T02:54:29.757Z,92.96
2022-10-02T02:59:38.347Z,92.59
2022-10-02T03:04:44.274Z,92.10
2022-10-02T03:10:01.582Z,92.31
2022-10-02T03:15:22.974Z,92.96
2022-10-02T03:20:36.686Z,92.69
2022-10-02T03:25:48.678Z,92.62
2022-10-02T03:30:57.691Z,92.89
2022-10-02T03:36:04.363Z,93.75
2022-10-02T03:41:10.277Z,94.37
2022-10-02T03:46:16.085Z,94.54
2022-10-02T03:51:22.120Z,94.60
2022-10-02T03:56:36.950Z,94.61
2022-10-02T04:01:49.140Z,94.67
2022-10-02T04:07:01.005Z,94.70
2022-10-02T04:12:12.401Z,94.62
2022-10-02T04:17:23.950Z,94.72
2022-10-02T04:22:39.219Z,94.67
2022-10-02T04:27:49.518Z,94.63
2022-10-02T04:32:56.757Z,94.85
2022-10-02T04:38:29.102Z,94.69
2022-10-02T04:43:53.922Z,94.81
2022-10-02T04:49:16.624Z,94.78
2022-10-02T04:54:46.240Z,94.85
2022-10-02T05:00:07.479Z,94.99
2022-10-02T05:05:40.661Z,95.19
2022-10-02T05:11:04.995Z,95.41
2022-10-02T05:16:28.360Z,95.44
2022-10-02T05:21:53.117Z,95.41
2022-10-02T05:27:17.631Z,95.48
2022-10-02T05:32:41.217Z,95.55
2022-10-02T05:37:59.613Z,95.52
2022-10-02T05:43:10.422Z,95.38
2022-10-02T05:48:23.208Z,95.40
2022-10-02T05:53:35.180Z,95.47
2022-10-02T05:58:50.781Z,95.34
2022-10-02T06:04:02.926Z,95.41
2022-10-02T06:09:19.559Z,95.24
2022-10-02T06:14:32.181Z,95.24
2022-10-02T06:19:44.203Z,95.13
2022-10-02T06:25:20.009Z,95.09
2022-10-02T06:30:26.579Z,95.11
2022-10-02T06:35:54.413Z,94.94
2022-10-02T06:41:11.739Z,94.52
2022-10-02T06:46:28.119Z,94.41
2022-10-02T06:51:45.934Z,94.25
2022-10-02T06:57:07.104Z,94.36
2022-10-02T07:07:53.792Z,94.46
2022-10-02T07:13:14.309Z,94.81
2022-10-02T07:18:32.727Z,94.65
2022-10-02T07:24:02.386Z,94.16
2022-10-02T07:29:37.120Z,93.73
2022-10-02T07:34:51.916Z,93.34
2022-10-02T07:40:21.848Z,93.14
2022-10-02T07:45:36.906Z,92.95
2022-10-02T07:50:56.460Z,92.16
2022-10-02T07:56:02.648Z,91.38
2022-10-02T08:01:16.665Z,90.42
2022-10-02T08:06:37.839Z,89.79
2022-10-02T08:11:49.679Z,88.86
2022-10-02T08:16:58.088Z,88.50
2022-10-02T08:22:10.293Z,88.06
2022-10-02T08:27:19.579Z,88.32
2022-10-02T08:32:34.850Z,88.35
2022-10-02T08:37:57.816Z,88.24
2022-10-02T08:43:45.423Z,87.67
2022-10-02T08:49:31.311Z,87.13
2022-10-02T08:55:12.537Z,86.89
2022-10-02T09:00:35.881Z,86.85
2022-10-02T09:06:15.703Z,86.85
2022-10-02T09:12:11.198Z,85.53
2022-10-02T09:17:35.880Z,82.65
2022-10-02T09:23:12.550Z,80.25
2022-10-02T09:29:00.098Z,79.81
2022-10-02T09:34:36.137Z,77.53
2022-10-02T09:39:59.855Z,76.72
2022-10-02T09:45:36.669Z,76.98
2022-10-02T09:51:10.767Z,75.92
2022-10-02T09:56:49.752Z,75.72
2022-10-02T10:02:27.538Z,75.08
2022-10-02T10:08:06.650Z,75.32
2022-10-02T10:13:46.985Z,70.48
2022-10-02T10:19:27.283Z,65.40
2022-10-02T10:24:56.422Z,59.53
2022-10-02T10:30:21.392Z,59.23
2022-10-02T10:35:40.366Z,61.37
2022-10-02T10:41:05.599Z,64.64
2022-10-02T10:46:42.783Z,68.92
2022-10-02T10:51:55.361Z,71.88
2022-10-02T10:57:11.311Z,71.58
2022-10-02T11:02:54.767Z,69.49
2022-10-02T11:08:24.448Z,69.21
2022-10-02T11:13:46.742Z,68.06
2022-10-02T11:19:20.574Z,68.36
2022-10-02T11:24:44.194Z,69.25
2022-10-02T11:30:20.673Z,68.20
2022-10-02T11:35:35.872Z,63.97
2022-10-02T11:40:58.001Z,64.11
2022-10-02T11:46:36.507Z,64.91
2022-10-02T11:52:00.098Z,66.22
2022-10-02T11:57:25.900Z,67.65
2022-10-02T12:02:38.710Z,67.11
2022-10-02T12:07:55.575Z,66.69
2022-10-02T12:13:24.673Z,66.79
2022-10-02T12:18:44.395Z,67.18
2022-10-02T12:24:14.614Z,66.73
2022-10-02T12:29:31.492Z,66.19
2022-10-02T12:34:51.658Z,65.81
2022-10-02T12:40:10.146Z,64.19
2022-10-02T12:45:33.421Z,62.49
2022-10-02T12:51:07.359Z,60.82
2022-10-02T12:56:43.889Z,61.67
2022-10-02T13:02:49.173Z,61.37
2022-10-02T13:08:25.519Z,62.17
2022-10-02T13:13:54.301Z,63.31
2022-10-02T13:19:15.918Z,64.45
2022-10-02T13:24:43.208Z,65.47
2022-10-02T13:30:01.314Z,66.04
2022-10-02T13:35:24.952Z,66.51
2022-10-02T13:40:38.485Z,67.47
2022-10-02T13:45:53.909Z,67.64
2022-10-02T13:51:05.368Z,67.62
2022-10-02T13:56:20.810Z,68.26
2022-10-02T14:01:37.164Z,68.22
2022-10-02T14:06:49.010Z,67.93
2022-10-02T14:12:11.509Z,68.37
2022-10-02T14:17:26.499Z,68.14
2022-10-02T14:22:43.274Z,67.17
2022-10-02T14:28:25.591Z,66.36
2022-10-02T14:33:42.157Z,66.54
2022-10-02T14:39:02.113Z,66.72
2022-10-02T14:44:35.543Z,67.31
2022-10-02T14:50:13.896Z,67.69
2022-10-02T14:55:32.626Z,67.61
2022-10-02T15:00:50.066Z,67.51
2022-10-02T15:06:11.805Z,67.58
2022-10-02T15:11:30.068Z,66.51
2022-10-02T15:17:06.184Z,66.40
2022-10-02T15:22:20.348Z,66.23
2022-10-02T15:27:32.334Z,66.71
2022-10-02T15:33:07.472Z,67.22
2022-10-02T15:38:38.953Z,67.60
2022-10-02T15:43:53.620Z,68.30
2022-10-02T15:49:04.688Z,68.95
2022-10-02T15:54:24.836Z,69.75
2022-10-02T15:59:49.732Z,70.66
2022-10-02T16:05:09.107Z,71.71
2022-10-02T16:10:24.592Z,73.04
2022-10-02T16:15:47.100Z,74.13
2022-10-02T16:21:14.003Z,75.14
2022-10-02T16:26:35.158Z,75.66
2022-10-02T16:31:59.962Z,76.37
2022-10-02T16:37:10.296Z,76.99
2022-10-02T16:42:32.308Z,77.38
2022-10-02T16:47:48.008Z,77.94
2022-10-02T16:52:58.857Z,78.16
2022-10-02T16:58:21.947Z,78.65
2022-10-02T17:03:34.501Z,78.92
2022-10-02T17:08:47.882Z,79.36
2022-10-02T17:14:11.919Z,79.83
2022-10-02T17:19:25.929Z,80.17
2022-10-02T17:24:40.695Z,80.53
2022-10-02T17:29:58.215Z,80.89
2022-10-02T17:35:10.252Z,81.06
2022-10-02T17:40:20.985Z,81.41
2022-10-02T17:45:37.129Z,82.24
2022-10-02T17:50:55.332Z,82.76
2022-10-02T17:56:44.189Z,82.90
2022-10-02T18:02:00.812Z,83.14
2022-10-02T18:07:29.651Z,83.31
2022-10-02T18:13:06.382Z,83.51
2022-10-02T18:18:30.087Z,83.98
2022-10-02T18:24:00.687Z,84.41
2022-10-02T18:29:26.150Z,84.76
2022-10-02T18:34:54.945Z,85.23
2022-10-02T18:40:22.354Z,85.58
2022-10-02T18:45:40.779Z,86.39
2022-10-02T18:51:04.592Z,86.37
2022-10-02T18:56:15.105Z,86.40
2022-10-02T19:01:52.945Z,86.63
2022-10-02T19:07:07.299Z,87.08
2022-10-02T19:12:22.216Z,87.19
2022-10-02T19:17:34.790Z,86.93
2022-10-02T19:22:41.161Z,86.69
2022-10-02T19:27:54.003Z,86.38
2022-10-02T19:33:07.645Z,86.04
2022-10-02T19:38:25.019Z,85.72
2022-10-02T19:43:34.481Z,85.22
2022-10-02T19:48:41.380Z,84.86
2022-10-02T19:53:53.395Z,84.99
2022-10-02T19:59:04.671Z,85.33
2022-10-02T20:04:14.357Z,85.86
2022-10-02T20:09:24.802Z,86.48
2022-10-02T20:14:37.076Z,86.64
2022-10-02T20:19:51.700Z,87.03
2022-10-02T20:25:03.586Z,87.43
2022-10-02T20:30:16.782Z,87.56
2022-10-02T20:35:34.754Z,87.47
2022-10-02T20:40:47.017Z,87.27
2022-10-02T20:46:05.508Z,87.50
2022-10-02T20:51:19.331Z,87.71
2022-10-02T20:56:38.335Z,87.97
2022-10-02T21:01:54.644Z,88.33
2022-10-02T21:07:24.141Z,88.53
2022-10-02T21:13:19.278Z,88.67
2022-10-02T21:18:52.497Z,89.01
2022-10-02T21:24:28.916Z,89.13
2022-10-02T21:30:02.338Z,89.34
2022-10-02T21:35:16.838Z,89.65
2022-10-02T21:41:12.660Z,89.88
2022-10-02T21:46:47.742Z,89.83
2022-10-02T21:52:18.283Z,89.83
2022-10-02T21:58:03.262Z,90.12
2022-10-02T22:03:45.650Z,90.31
2022-10-02T22:09:05.360Z,90.30
2022-10-02T22:14:14.896Z,90.41
2022-10-02T22:19:48.483Z,90.82
2022-10-02T22:25:14.014Z,91.60
2022-10-02T22:30:26.062Z,92.01
2022-10-02T22:35:47.672Z,92.23
2022-10-02T22:40:58.025Z,92.68
2022-10-02T22:46:09.793Z,92.83
2022-10-02T22:51:20.434Z,93.06
2022-10-02T22:56:32.025Z,93.28
2022-10-02T23:01:45.522Z,93.43
2022-10-02T23:06:58.389Z,93.47
2022-10-02T23:12:12.766Z,93.63
2022-10-02T23:17:27.148Z,93.85
2022-10-02T23:22:37.881Z,93.73
2022-10-02T23:27:54.675Z,94.00
2022-10-02T23:33:05.178Z,94.16
2022-10-02T23:38:23.290Z,94.25
2022-10-02T23:43:35.321Z,94.42
2022-10-02T23:48:42.194Z,94.25
2022-10-02T23:54:15.877Z,94.31
2022-10-02T23:59:44.173Z,94.17
